Dauntless Aviation
Airports Europe Germany
EDSW

Altdorf-Wallburg

Altdorf-Wallburg, GERMANY

Airport Info
Suggest Updated Information for this Airport

Location

Latitude / Longitude: 48°16'11"N / 7°50'31"E
  48°16.188'N / 7°50.532'E
  48.2698 / 7.8422
Satellite photo at:
Airport distance calculator
From:
Weather Reports

METAR

LFST
18.2nm NW
LFST 112300Z AUTO VRB03KT CAVOK 01/M01 Q1007
EDSB
32.3nm N
EDSB 112250Z 20002KT CAVOK 02/M01 Q1006

TAF

EDTL
5.8nm NW
TAF EDTL 111700Z 1118/1124 20008KT 9999 SCT030 PROB30 TEMPO 1118/1124 SHRA BKN014TCU BECMG 1118/1121 VRB03KT
LFST
18.2nm NW
TAF LFST 111701Z 1118/1218 21004KT 9999 FEW030 BKN070 TEMPO 1203/1209 3000 BR BKN008 PROB30 1204/1208 1500 BCFG BKN003 TEMPO 1216/1218 5000 -RA BKN012 OVC025
EDSB
32.3nm N
TAF EDSB 111700Z 1118/1218 VRB03KT 9999 SCT040 PROB30 TEMPO 1204/1209 1500 BCFG BECMG 1209/1212 03006KT
Safelog

 

Dauntless Aviation

© 2007-2016 Dauntless Aviation, all rights reserved
Information provided via PilotNav comes from a variety of official and unofficial data sources. As errors are possible, do not use PilotNav for primary flight planning purposes. Verify any information that you receive via PilotNav with current and canonical charts and other official documents. The material in this database is subject to database copyrights held by Dauntless Aviation and may not be copied without the express permission of Dauntless Aviation - licenses for use of part of all of this data are available for purchase; enquire via the Dauntless Aviation helpdesk. A number of mechanisms and markers exist in the database to protect against and identify infringement / copyright. Automated queries against this website are stictly prohibited, and all activity is logged and analyzed.